Overview Statistics Trail Chart Weather Telemetry Raw packets
 

This is the latest recevied telemetry packets stored in our database for station/object DL4ML-2. If no packets are shown the sender has not sent any telemetry packets the latest 10 day(s).

Telemetry packets is used to share measurements like repeteater parameters, battery voltage, radiation readings (or any other measurements).

<< 1 2 3 4 >>
Time Press* Temp.in* Hum* QNH* Temp.out*
1788600618 987.2 hPa 24.7 C deg 53 % 1028.9 hPa 0 C deg
1788598811 987 hPa 24.7 C deg 53.2 % 1028.7 hPa 0 C deg
1788597014 986.4 hPa 24.7 C deg 53.3 % 1028.1 hPa 0 C deg
1788596988 986.4 hPa 24.7 C deg 53.3 % 1028.1 hPa 0 C deg
1788595175 986.2 hPa 24.7 C deg 53.4 % 1027.9 hPa 0 C deg
1788593380 986.2 hPa 24.8 C deg 53.5 % 1027.9 hPa 0 C deg
1788593361 986.2 hPa 24.8 C deg 53.5 % 1027.9 hPa 0 C deg
1788591543 985.9 hPa 24.8 C deg 53.6 % 1027.6 hPa 0 C deg
1788591543 985.9 hPa 24.8 C deg 53.6 % 1027.6 hPa 0 C deg
1788589728 985.7 hPa 24.8 C deg 53.7 % 1027.4 hPa 0 C deg
1788589728 985.7 hPa 24.8 C deg 53.7 % 1027.4 hPa 0 C deg
1788587913 985.4 hPa 24.9 C deg 53.8 % 1027.1 hPa 0 C deg
1788587913 985.4 hPa 24.9 C deg 53.8 % 1027.1 hPa 0 C deg
1788586098 984.9 hPa 25 C deg 53.8 % 1026.6 hPa 0 C deg
1788584283 984.4 hPa 25.1 C deg 53.7 % 1026 hPa 0 C deg
1788582473 984.2 hPa 25.1 C deg 53.5 % 1025.8 hPa 0 C deg
1788580662 984 hPa 25.2 C deg 53.7 % 1025.5 hPa 0 C deg
1788578837 984 hPa 25.3 C deg 53.7 % 1025.5 hPa 0 C deg
1788577022 984.3 hPa 25.4 C deg 53.9 % 1025.9 hPa 0 C deg
1788575207 984.1 hPa 25.5 C deg 53.6 % 1025.6 hPa 0 C deg
1788573392 983.6 hPa 25.5 C deg 53.7 % 1025.1 hPa 0 C deg
1788573392 983.6 hPa 25.5 C deg 53.7 % 1025.1 hPa 0 C deg
1788571580 983.3 hPa 25.5 C deg 53.9 % 1024.8 hPa 0 C deg
1788571580 983.3 hPa 25.5 C deg 53.9 % 1024.8 hPa 0 C deg
1788569764 982.8 hPa 25.5 C deg 54 % 1024.3 hPa 0 C deg
*Used Equation Coefficients:
Press: 0, 1, 0
Temp.in: 0, 1, 0
Hum: 0, 1, 0
QNH: 0, 1, 0
Temp.out: 0, 1, 0

  • The parameter names for the analog channels will be Value1, Value2, Value3 (up to Value5) if station has not sent a PARAM-packet that specifies the parameter names for each analog channel.
  • Each analog value is a decimal number between 000 and 255 (according to APRS specifications). The receiver use the telemetry equation coefficientsto to restore the original sensor values. If no EQNS-packet with equation coefficients is sent we will show the values as is (this corresponds to the equation coefficients a=0, b=1 and c=0).
    The sent equation coefficients is used in the equation: a * value2 + b * value + c.
  • The units for the analog values will not be shown if station has not sent a UNIT-packet specifying what unit's to use.
  • The parameter names for the digital bits will be Bit1, Bit2, Bit3 (up to Bit8) if station has not sent a PARAM-packet that specifies the parameter names for each digital bit.
  • All bit labels will be named "On" if station has not sent a UNIT-packet that specifies the label of each bit.
  • A bit is considered to be On when the bit is 1 if station has not sent a BITS-packet that specifies another "Bit sense" (a BITS-packet specify the state of the bits that match the BIT labels)